createdAt,value
2018-07-24T00:16:35.360Z,4.80
2018-07-24T00:19:04.244Z,4.77
2018-07-24T00:21:33.072Z,4.63
2018-07-24T00:24:01.527Z,4.73
2018-07-24T00:26:29.899Z,4.30
2018-07-24T00:28:58.750Z,4.23
2018-07-24T00:31:27.158Z,4.30
2018-07-24T00:33:55.999Z,4.13
2018-07-24T00:36:24.415Z,4.20
2018-07-24T00:38:53.229Z,4.03
2018-07-24T00:41:22.052Z,4.83
2018-07-24T00:43:50.838Z,4.77
2018-07-24T00:46:19.691Z,4.23
2018-07-24T00:48:48.114Z,4.50
2018-07-24T00:51:16.947Z,4.93
2018-07-24T00:53:45.772Z,5.10
2018-07-24T00:56:14.558Z,5.10
2018-07-24T00:58:42.981Z,5.20
2018-07-24T01:01:11.795Z,5.67
2018-07-24T01:03:40.255Z,5.80
2018-07-24T01:06:08.623Z,5.10
2018-07-24T01:08:37.449Z,5.27
2018-07-24T01:11:05.873Z,4.87
2018-07-24T01:13:35.168Z,4.97
2018-07-24T01:16:03.965Z,4.93
2018-07-24T01:18:32.373Z,5.10
2018-07-24T01:21:01.195Z,5.63
2018-07-24T01:23:30.018Z,5.90
2018-07-24T01:25:58.779Z,6.00
2018-07-24T01:28:27.576Z,5.20
2018-07-24T01:30:56.361Z,5.57
2018-07-24T01:33:24.808Z,5.27
2018-07-24T01:35:53.209Z,5.00
2018-07-24T01:38:22.035Z,4.83
2018-07-24T01:40:50.419Z,4.87
2018-07-24T01:43:18.864Z,5.73
2018-07-24T01:45:47.260Z,5.20
2018-07-24T01:48:16.165Z,5.23
2018-07-24T01:50:44.576Z,4.87
2018-07-24T01:53:12.950Z,5.67
2018-07-24T01:55:41.364Z,4.60
2018-07-24T01:58:09.760Z,4.93
2018-07-24T02:00:38.252Z,4.97
2018-07-24T02:03:07.042Z,5.50
2018-07-24T02:05:35.429Z,5.03
2018-07-24T02:08:03.822Z,5.93
2018-07-24T02:10:32.663Z,5.47
2018-07-24T02:13:01.014Z,5.47
2018-07-24T02:15:29.915Z,5.50
2018-07-24T02:17:58.717Z,5.90
2018-07-24T02:20:27.112Z,5.63
2018-07-24T02:22:55.954Z,5.20
2018-07-24T02:25:24.329Z,5.73
2018-07-24T02:27:52.709Z,5.83
2018-07-24T02:30:21.214Z,5.15
2018-07-24T02:32:49.562Z,5.70
2018-07-24T02:35:18.504Z,5.23
2018-07-24T02:37:47.779Z,4.97
2018-07-24T02:42:43.715Z,5.00
2018-07-24T02:47:40.040Z,5.70
2018-07-24T02:50:08.921Z,5.40
2018-07-24T02:52:37.334Z,4.83
2018-07-24T02:55:06.224Z,4.93
2018-07-24T02:57:34.588Z,6.13
2018-07-24T03:00:03.043Z,5.10
2018-07-24T03:02:31.856Z,5.17
2018-07-24T03:05:00.640Z,6.13
2018-07-24T03:07:29.457Z,5.87
2018-07-24T03:09:58.272Z,5.40
2018-07-24T04:38:40.024Z,7.73
2018-07-24T04:41:08.436Z,7.77
2018-07-24T04:43:36.822Z,7.30
2018-07-24T04:46:05.294Z,7.40
2018-07-24T04:48:33.759Z,8.30
2018-07-24T04:51:02.553Z,8.07
2018-07-24T04:53:30.987Z,7.80
2018-07-24T04:55:59.720Z,9.47
2018-07-24T04:58:28.526Z,7.63
2018-07-24T05:00:57.324Z,9.03
2018-07-24T05:03:25.758Z,8.87
2018-07-24T05:05:54.170Z,9.47
2018-07-24T05:08:22.982Z,8.93
2018-07-24T05:10:51.410Z,7.37
2018-07-24T05:13:19.783Z,8.27
2018-07-24T05:15:48.599Z,8.73
2018-07-24T05:18:16.976Z,7.77
2018-07-24T05:20:45.375Z,7.50
2018-07-24T05:25:41.748Z,10.00
2018-07-24T05:42:56.934Z,8.70
2018-07-24T05:45:25.321Z,8.67
2018-07-24T05:47:54.152Z,8.90
2018-07-24T06:10:05.528Z,6.17
2018-07-24T06:12:33.928Z,6.03
2018-07-24T06:15:02.300Z,6.80
2018-07-24T06:27:22.913Z,5.80
2018-07-24T06:29:51.352Z,5.43
2018-07-24T06:32:19.768Z,6.00
2018-07-24T06:34:48.554Z,5.87
2018-07-24T06:37:17.437Z,4.80
2018-07-24T06:39:45.930Z,5.63
2018-07-24T06:42:14.691Z,6.23
2018-07-24T06:44:43.113Z,5.70
2018-07-24T06:47:11.559Z,5.23
2018-07-24T06:49:40.359Z,5.83
2018-07-24T06:52:08.806Z,4.97
2018-07-24T06:54:37.158Z,4.00
2018-07-24T06:57:05.950Z,3.70
2018-07-24T06:59:34.337Z,4.00
2018-07-24T07:02:03.124Z,3.93
2018-07-24T07:04:31.476Z,4.20
2018-07-24T07:06:59.859Z,3.90
2018-07-24T07:09:28.290Z,4.00
2018-07-24T07:11:57.071Z,4.20
2018-07-24T07:14:25.850Z,3.60
2018-07-24T07:16:54.324Z,4.07
2018-07-24T07:19:22.718Z,3.20
2018-07-24T07:21:51.118Z,3.47
2018-07-24T07:24:19.541Z,3.40
2018-07-24T07:26:47.909Z,3.73
2018-07-24T07:29:16.422Z,3.47
2018-07-24T07:31:44.799Z,3.77
2018-07-24T07:34:13.620Z,3.87
2018-07-24T07:36:42.085Z,4.40
2018-07-24T07:39:11.724Z,4.10
2018-07-24T07:41:40.477Z,3.70
2018-07-24T07:44:09.263Z,3.80
2018-07-24T07:46:37.695Z,3.60
2018-07-24T07:49:06.524Z,4.13
2018-07-24T07:51:35.020Z,3.63
2018-07-24T07:54:03.488Z,3.87
2018-07-24T07:56:32.329Z,3.33
2018-07-24T07:59:00.792Z,3.60
2018-07-24T08:01:29.230Z,3.27
2018-07-24T08:03:57.602Z,3.53
2018-07-24T08:06:26.402Z,3.87
2018-07-24T08:08:54.811Z,3.60
2018-07-24T08:11:23.330Z,3.60
2018-07-24T08:13:51.745Z,3.67
2018-07-24T08:16:20.327Z,3.17
2018-07-24T08:18:48.796Z,3.40
2018-07-24T08:21:17.620Z,3.47
2018-07-24T08:23:46.463Z,3.20
2018-07-24T08:26:14.889Z,3.27
2018-07-24T08:28:43.275Z,3.50
2018-07-24T08:31:12.126Z,3.70
2018-07-24T08:33:40.555Z,3.43
2018-07-24T08:36:08.912Z,3.17
2018-07-24T08:38:37.743Z,2.90
2018-07-24T08:41:06.673Z,3.70
2018-07-24T08:43:35.118Z,3.17
2018-07-24T08:46:03.521Z,3.00
2018-07-24T08:48:31.950Z,3.30
2018-07-24T08:51:00.357Z,3.07
2018-07-24T08:53:29.435Z,3.17
2018-07-24T08:55:57.989Z,3.57
2018-07-24T08:58:26.799Z,3.30
2018-07-24T09:00:55.178Z,3.03
2018-07-24T09:03:23.564Z,3.10
2018-07-24T09:05:52.403Z,3.33
2018-07-24T09:08:20.823Z,3.00
2018-07-24T09:10:49.579Z,3.10
2018-07-24T09:13:18.372Z,3.50
2018-07-24T09:15:47.161Z,3.10
2018-07-24T09:18:15.552Z,3.00
2018-07-24T09:20:43.903Z,3.00
2018-07-24T09:23:12.324Z,2.67
2018-07-24T09:25:40.728Z,3.03
2018-07-24T09:28:09.165Z,3.20
2018-07-24T09:30:37.559Z,3.30
2018-07-24T09:33:06.022Z,2.90
2018-07-24T09:35:34.881Z,2.73
2018-07-24T09:38:03.663Z,2.93
2018-07-24T09:40:32.087Z,2.83
2018-07-24T09:43:00.538Z,3.10
2018-07-24T09:45:28.982Z,2.87
2018-07-24T09:47:57.835Z,2.83
2018-07-24T09:50:26.617Z,3.30
2018-07-24T09:52:54.994Z,3.13
2018-07-24T09:55:23.808Z,3.40
2018-07-24T09:57:52.179Z,3.30
2018-07-24T10:00:25.761Z,3.10
2018-07-24T10:02:54.138Z,3.50
2018-07-24T10:05:22.646Z,3.23
2018-07-24T10:07:51.086Z,2.87
2018-07-24T10:10:19.491Z,3.20
2018-07-24T10:12:48.375Z,2.93
2018-07-24T10:15:17.157Z,3.47
2018-07-24T10:17:45.624Z,3.40
2018-07-24T10:20:14.028Z,3.00
2018-07-24T10:22:42.941Z,3.20
2018-07-24T10:25:11.706Z,3.27
2018-07-24T10:27:40.460Z,3.13
2018-07-24T10:30:09.314Z,3.03
2018-07-24T10:32:38.155Z,3.17
2018-07-24T10:35:07.475Z,3.47
2018-07-24T10:37:36.296Z,3.20
2018-07-24T10:40:06.075Z,3.57
2018-07-24T10:42:34.466Z,3.13
2018-07-24T10:45:03.322Z,3.20
2018-07-24T10:47:31.779Z,3.03
2018-07-24T10:50:00.587Z,3.20
2018-07-24T10:52:29.006Z,3.27
2018-07-24T10:54:57.437Z,3.60
2018-07-24T10:57:26.229Z,3.03
2018-07-24T10:59:55.031Z,3.27
2018-07-24T11:02:23.969Z,3.53
2018-07-24T11:04:52.326Z,3.30
2018-07-24T11:07:20.771Z,3.60
2018-07-24T11:09:49.186Z,3.07
2018-07-24T11:12:17.974Z,3.92
2018-07-24T11:14:46.771Z,3.73
2018-07-24T11:17:15.607Z,3.83
2018-07-24T11:19:44.031Z,3.47
2018-07-24T11:22:12.510Z,3.33
2018-07-24T11:24:40.905Z,3.65
2018-07-24T11:27:09.761Z,4.00
2018-07-24T11:29:38.163Z,3.30
2018-07-24T11:32:06.631Z,3.30
2018-07-24T11:34:35.009Z,2.60
2018-07-24T11:37:03.915Z,2.98
2018-07-24T11:39:32.716Z,3.50
2018-07-24T11:42:01.535Z,3.25
2018-07-24T11:44:29.937Z,3.60
2018-07-24T11:46:58.780Z,3.30
2018-07-24T11:49:27.220Z,3.30
2018-07-24T11:51:56.099Z,2.80
2018-07-24T11:54:24.494Z,3.35
2018-07-24T11:56:53.320Z,3.10
2018-07-24T11:59:21.852Z,3.00
2018-07-24T12:01:50.261Z,3.35
2018-07-24T12:04:19.076Z,3.10
2018-07-24T12:06:47.969Z,3.17
2018-07-24T12:09:16.404Z,3.25
2018-07-24T12:11:45.223Z,2.80
2018-07-24T12:14:14.046Z,2.75
2018-07-24T12:16:42.480Z,3.25
2018-07-24T12:19:11.433Z,3.15
2018-07-24T12:21:39.857Z,2.80
2018-07-24T12:24:08.680Z,2.67
2018-07-24T12:26:37.479Z,2.83
2018-07-24T12:29:06.327Z,2.90
2018-07-24T12:31:34.748Z,3.30
2018-07-24T12:34:03.509Z,2.90
2018-07-24T12:36:32.400Z,3.02
2018-07-24T12:39:00.828Z,3.12
2018-07-24T12:41:29.640Z,2.85
2018-07-24T12:43:58.093Z,3.05
2018-07-24T12:46:26.884Z,3.20
2018-07-24T12:48:55.673Z,2.62
2018-07-24T12:51:24.108Z,3.10
2018-07-24T12:53:53.262Z,3.05
2018-07-24T12:56:21.752Z,3.15
2018-07-24T12:58:50.621Z,2.87
2018-07-24T13:01:19.606Z,3.00
2018-07-24T13:03:48.023Z,2.52
2018-07-24T13:06:16.536Z,3.08
2018-07-24T13:08:45.362Z,2.75
2018-07-24T13:11:13.975Z,2.80
2018-07-24T13:13:42.844Z,2.77
2018-07-24T13:16:11.236Z,2.85
2018-07-24T13:18:39.646Z,2.87
2018-07-24T13:21:08.041Z,3.00
2018-07-24T13:23:36.899Z,2.40
2018-07-24T13:26:05.326Z,2.83
2018-07-24T13:28:34.156Z,2.92
2018-07-24T13:31:02.972Z,3.20
2018-07-24T13:33:31.362Z,3.17
2018-07-24T13:36:00.181Z,3.00
2018-07-24T13:38:28.950Z,3.30
2018-07-24T13:40:57.395Z,3.15
2018-07-24T13:43:25.837Z,3.02
2018-07-24T13:45:54.304Z,3.12
2018-07-24T13:48:23.119Z,3.20
2018-07-24T13:50:51.504Z,2.67
2018-07-24T13:53:20.345Z,3.50
2018-07-24T13:55:49.190Z,2.65
2018-07-24T13:58:17.630Z,2.58
2018-07-24T14:00:46.514Z,2.80
2018-07-24T14:03:14.994Z,2.98
2018-07-24T14:05:43.477Z,3.20
2018-07-24T14:08:12.187Z,3.12
2018-07-24T14:10:41.021Z,2.90
2018-07-24T14:13:09.475Z,2.87
2018-07-24T14:15:37.918Z,2.90
2018-07-24T14:18:06.357Z,3.25
2018-07-24T14:20:34.759Z,2.47
2018-07-24T14:23:03.151Z,2.58
2018-07-24T14:25:32.031Z,2.70
2018-07-24T14:28:00.497Z,2.30
2018-07-24T14:30:29.082Z,3.00
2018-07-24T14:32:57.890Z,2.70
2018-07-24T14:35:26.319Z,2.30
2018-07-24T14:37:54.754Z,3.02
2018-07-24T14:40:23.198Z,3.00
2018-07-24T14:42:51.630Z,3.12
2018-07-24T14:45:20.468Z,3.20
2018-07-24T14:47:48.906Z,3.30
2018-07-24T14:50:17.700Z,3.00
2018-07-24T14:52:46.150Z,2.98
2018-07-24T14:55:14.594Z,3.17
2018-07-24T14:57:43.081Z,2.70
2018-07-24T15:00:11.481Z,2.58
2018-07-24T15:02:39.998Z,2.95
2018-07-24T15:05:08.468Z,2.72
2018-07-24T15:07:37.299Z,2.60
2018-07-24T15:10:05.777Z,2.58
2018-07-24T15:12:34.565Z,2.77
2018-07-24T15:15:03.391Z,2.98
2018-07-24T15:17:32.202Z,2.95
2018-07-24T15:20:01.065Z,2.42
2018-07-24T15:22:29.858Z,2.25
2018-07-24T15:24:58.604Z,2.62
2018-07-24T15:27:27.413Z,2.58
2018-07-24T15:29:55.831Z,2.60
2018-07-24T15:32:24.633Z,2.30
2018-07-24T15:34:53.487Z,2.62
2018-07-24T15:37:22.277Z,2.72
2018-07-24T15:39:51.124Z,2.60
2018-07-24T15:42:19.912Z,2.67
2018-07-24T15:44:48.374Z,2.50
2018-07-24T15:47:17.181Z,2.35
2018-07-24T15:49:45.603Z,2.35
2018-07-24T15:52:14.087Z,2.30
2018-07-24T15:54:42.856Z,2.52
2018-07-24T15:57:11.641Z,2.42
2018-07-24T15:59:40.443Z,2.42
2018-07-24T16:02:09.303Z,2.33
2018-07-24T16:04:38.138Z,2.80
2018-07-24T16:07:06.540Z,2.67
2018-07-24T16:09:35.059Z,2.45
2018-07-24T16:12:03.876Z,2.20
2018-07-24T16:14:32.342Z,2.45
2018-07-24T16:17:01.167Z,2.10
2018-07-24T16:19:29.999Z,2.40
2018-07-24T16:21:59.180Z,1.92
2018-07-24T16:24:27.975Z,1.90
2018-07-24T16:26:56.881Z,2.05
2018-07-24T16:29:25.263Z,2.20
2018-07-24T16:31:54.059Z,2.17
2018-07-24T16:34:22.903Z,1.98
2018-07-24T16:36:51.679Z,2.00
2018-07-24T16:39:20.458Z,2.12
2018-07-24T16:41:49.306Z,2.15
2018-07-24T16:44:18.061Z,2.10
2018-07-24T16:46:46.494Z,2.00
2018-07-24T16:49:15.356Z,2.58
2018-07-24T16:51:44.145Z,2.33
2018-07-24T16:54:12.980Z,2.27
2018-07-24T16:56:41.812Z,2.15
2018-07-24T16:59:10.793Z,2.10
2018-07-24T17:01:39.540Z,1.82
2018-07-24T17:04:08.378Z,2.27
2018-07-24T17:06:37.164Z,2.08
2018-07-24T17:09:08.748Z,2.02
2018-07-24T17:11:37.456Z,2.30
2018-07-24T17:14:07.980Z,2.42
2018-07-24T17:16:36.766Z,2.55
2018-07-24T17:19:05.680Z,2.08
2018-07-24T17:21:34.593Z,2.05
2018-07-24T17:24:03.391Z,2.55
2018-07-24T17:26:32.245Z,2.00
2018-07-24T17:29:00.654Z,2.17
2018-07-24T17:31:29.112Z,2.25
2018-07-24T17:33:57.501Z,2.40
2018-07-24T17:36:25.863Z,2.10
2018-07-24T17:38:54.745Z,2.15
2018-07-24T17:41:23.567Z,2.02
2018-07-24T17:43:51.978Z,2.15
2018-07-24T17:46:20.804Z,2.02
2018-07-24T17:48:49.692Z,2.12
2018-07-24T17:51:18.136Z,2.37
2018-07-24T17:53:46.975Z,2.22
2018-07-24T17:56:15.840Z,2.25
2018-07-24T17:58:44.255Z,2.20
2018-07-24T18:01:13.052Z,2.00
2018-07-24T18:03:41.807Z,2.10
2018-07-24T18:06:10.664Z,2.20
2018-07-24T18:08:39.500Z,1.92
2018-07-24T18:11:08.274Z,2.08
2018-07-24T18:13:37.075Z,1.92
2018-07-24T18:16:05.866Z,2.33
2018-07-24T18:18:34.686Z,2.17
2018-07-24T18:21:03.497Z,2.05
2018-07-24T18:23:32.633Z,2.02
2018-07-24T18:26:01.004Z,2.15
2018-07-24T18:28:29.384Z,2.20
2018-07-24T18:30:57.826Z,2.47
2018-07-24T18:33:26.622Z,2.30
2018-07-24T18:35:55.006Z,1.98
2018-07-24T18:38:23.430Z,1.92
2018-07-24T18:40:51.865Z,2.58
2018-07-24T18:43:20.731Z,2.80
2018-07-24T18:45:49.479Z,2.30
2018-07-24T18:48:17.875Z,2.93
2018-07-24T18:50:46.683Z,2.30
2018-07-24T18:53:15.517Z,2.33
2018-07-24T18:55:44.331Z,2.50
2018-07-24T18:58:12.750Z,2.40
2018-07-24T19:00:41.131Z,2.43
2018-07-24T19:03:09.533Z,2.40
2018-07-24T19:05:37.944Z,2.67
2018-07-24T19:08:06.404Z,2.97
2018-07-24T19:10:35.162Z,2.50
2018-07-24T19:13:03.993Z,2.17
2018-07-24T19:15:32.395Z,2.63
2018-07-24T19:18:00.844Z,2.33
2018-07-24T19:20:29.246Z,2.70
2018-07-24T19:22:58.005Z,2.43
2018-07-24T19:25:26.809Z,2.43
2018-07-24T19:27:55.288Z,2.37
2018-07-24T19:30:24.092Z,2.37
2018-07-24T19:32:52.849Z,2.13
2018-07-24T19:35:21.257Z,2.07
2018-07-24T19:37:49.668Z,2.27
2018-07-24T19:40:18.075Z,2.27
2018-07-24T19:42:46.492Z,2.20
2018-07-24T19:47:42.510Z,2.30
2018-07-24T19:50:10.912Z,2.13
2018-07-24T19:52:39.330Z,2.30
2018-07-24T19:55:07.697Z,2.50
2018-07-24T19:57:36.500Z,2.60
2018-07-24T20:00:05.522Z,2.03
2018-07-24T20:02:33.975Z,2.80
2018-07-24T20:05:02.760Z,2.50
2018-07-24T20:07:31.319Z,2.20
2018-07-24T20:09:59.767Z,2.73
2018-07-24T20:12:28.608Z,2.70
2018-07-24T20:29:44.012Z,2.37
2018-07-24T20:32:12.402Z,2.30
2018-07-24T20:34:40.797Z,3.07
2018-07-24T20:37:09.235Z,2.70
2018-07-24T20:39:37.583Z,2.53
2018-07-24T20:42:06.391Z,2.50
2018-07-24T20:44:34.813Z,2.33
2018-07-24T20:47:03.655Z,2.43
2018-07-24T20:49:32.062Z,2.43
2018-07-24T20:52:00.518Z,2.47
2018-07-24T20:54:28.873Z,3.00
2018-07-24T20:56:57.677Z,3.03
2018-07-24T20:59:26.131Z,2.73
2018-07-24T21:01:54.519Z,3.30
2018-07-24T21:04:23.682Z,3.17
2018-07-24T21:06:52.074Z,3.40
2018-07-24T21:09:20.485Z,3.00
2018-07-24T21:11:50.183Z,2.90
2018-07-24T21:14:19.048Z,2.93
2018-07-24T21:16:47.514Z,2.70
2018-07-24T21:19:15.934Z,2.77
2018-07-24T21:21:44.354Z,2.90
2018-07-24T21:24:17.185Z,2.63
2018-07-24T21:26:46.007Z,2.77
2018-07-24T21:29:14.375Z,2.80
2018-07-24T21:31:43.121Z,3.40
2018-07-24T21:34:11.507Z,2.87
2018-07-24T21:36:40.307Z,2.80
2018-07-24T21:39:09.598Z,3.10
2018-07-24T21:41:38.350Z,3.03
2018-07-24T21:55:31.639Z,2.90
2018-07-24T21:58:00.421Z,2.60
2018-07-24T22:00:33.064Z,2.83
2018-07-24T22:03:01.889Z,2.80
2018-07-24T22:05:30.331Z,3.30
2018-07-24T22:07:58.767Z,3.03
2018-07-24T22:10:27.552Z,2.90
2018-07-24T22:12:56.391Z,2.90
2018-07-24T22:15:25.476Z,2.90
2018-07-24T22:17:54.821Z,3.00
2018-07-24T22:20:23.361Z,3.03
2018-07-24T22:22:51.945Z,3.33
2018-07-24T22:25:20.765Z,3.37
2018-07-24T22:27:49.144Z,3.23
2018-07-24T22:30:18.010Z,3.30
2018-07-24T22:32:46.817Z,2.93
2018-07-24T22:35:15.215Z,3.20
2018-07-24T22:37:44.042Z,2.90
2018-07-24T22:40:12.878Z,3.03
2018-07-24T22:42:42.190Z,3.20
2018-07-24T22:45:10.608Z,2.83
2018-07-24T22:47:39.435Z,2.77
2018-07-24T22:50:08.042Z,2.90
2018-07-24T22:52:36.900Z,3.23
2018-07-24T22:55:05.384Z,3.07
2018-07-24T22:57:33.785Z,3.10
2018-07-24T23:00:02.589Z,3.10
2018-07-24T23:02:31.429Z,3.10
2018-07-24T23:05:00.253Z,3.53
2018-07-24T23:07:28.669Z,3.10
2018-07-24T23:09:57.060Z,2.80
2018-07-24T23:12:25.871Z,3.10
2018-07-24T23:14:54.300Z,2.70
2018-07-24T23:17:23.112Z,3.57
2018-07-24T23:19:51.905Z,3.17
2018-07-24T23:22:20.798Z,3.20
2018-07-24T23:24:49.170Z,3.10
2018-07-24T23:27:18.013Z,3.43
2018-07-24T23:29:46.737Z,3.20
2018-07-24T23:32:15.112Z,3.20
2018-07-24T23:34:44.398Z,3.43
2018-07-24T23:37:13.169Z,3.37
2018-07-24T23:39:41.546Z,3.23
2018-07-24T23:42:10.061Z,3.40
2018-07-24T23:44:38.816Z,3.63
2018-07-24T23:47:07.651Z,3.53
2018-07-24T23:49:36.080Z,3.03
2018-07-24T23:54:32.058Z,3.25
2018-07-24T23:57:00.516Z,3.23
2018-07-24T23:59:28.883Z,3.43
